Historyczne dane pomiarowe

Dodano dane terminowe – wersja testowa.

Dane z okresu 1951-2019

Wersja bazy: 1.32 [2019-02-07, lista zmian], aktualizacja planowana na 2019-03-07

Dane meteo z obszaru Polski uzyskane na podstawie danych udostępnionych przez Instytut Meteorologii i Gospodarki Wodnej – Państwowy Instytut Badawczy.

 

Wybierz Datę:    

       

TemperaturaWilgotnośćWiatrCiśnienieOpadyŚniegCzas trwania zjawisk
 Stacja t tx tn tng RH VA  wxwx mslp ppp RRR   cm mm wxwxwxwxwxwxwx
2001-01-14 -3.6 -1.6 -7.0- 82.0- 7.0 1.0---- 0.0-- 1---------
2001-01-15 -3.5 -1.2 -6.5- 77.3- 8.0 3.0---- 0.0-- 1---------
2001-01-16 -6.3 -1.8-10.5- 89.0- 2.3 1.0---- 0.0-- 1---------
2001-01-17 -2.7 0.0 -6.0- 64.0- 5.7 1.3---- 0.0-- 1---------
2001-01-18 -3.5 1.1 -6.5- 82.0- 3.3 0.7---- 0.0-- 1---------
2001-01-19 -2.7 1.1 -6.0- 79.3- 4.0 0.3---- 0.0-- 1---------
2001-01-20 -1.8 1.1 -5.0- 80.0- 5.7 0.3---- 0.0-- 1---------
2001-01-21 -2.4 0.0 -3.5- 90.8- 7.0 0.0---- 0.0------------
2001-01-22 -3.4 1.5 -7.2- 71.8- 5.3 2.3---- 0.0------------
2001-01-23 -0.1 2.5 -2.9- 75.5- 7.0 0.3---- 0.0-- 1---------
2001-01-24 2.4 6.3 -2.0- 77.0- 4.7 5.7---- 1.0-- 1---------
2001-01-25 3.4 6.5 2.0- 87.0- 3.7 1.0---- 0.0------------
2001-01-26 3.8 7.3 1.0- 77.3- 6.7 1.0---- 0.0------------
2001-01-27 2.6 6.5 -0.2- 75.5- 4.0 1.3---- 0.0------------
2001-01-28 3.2 7.0 1.2- 61.5- 0.7 2.0---- 0.0------------
2001-01-29 1.5 5.6 -0.9- 82.3- 5.7 0.0---- 0.0------------
2001-01-30 -0.2 1.9 -1.0- 91.3- 8.0 1.7---- 0.5------------
2001-01-31 -1.6 0.0 -3.0- 91.8- 8.0 5.0---- 4.0-- 1---------
2001-02-01 -2.8 -0.6 -4.5- 93.0- 7.3 1.0---- 2.0-- 9---------
2001-02-02 -4.2 -0.6 -6.5- 92.3- 7.3 1.7---- 0.7-- 10---------
2001-02-03 -7.5 -4.3-12.0- 90.5- 6.7 0.7---- 1.0-- 12---------
2001-02-04 -4.9 -2.9 -7.9- 89.3- 8.0 0.7---- 2.0-- 13---------
2001-02-05 3.3 8.2 -5.0- 80.5- 5.3 2.3---- 1.5-- 14---------
2001-02-06 8.3 11.4 6.6- 76.3- 6.0 5.0---- 0.0------------
2001-02-07 8.7 13.4 6.0- 65.3- 5.7 0.7---- 0.0------------
2001-02-08 8.8 13.0 5.7- 72.0- 5.3 1.0---- 0.0------------
2001-02-09 7.4 12.4 4.2- 68.5- 6.3 0.3---- 0.8------------
2001-02-10 3.5 9.2 1.0- 95.3- 8.0 1.3---- 0.0------------
2001-02-11 1.8 7.4 -1.9- 79.5- 0.0 1.0---- 0.0------------
2001-02-12 8.4 16.5 2.0- 56.3- 4.3 0.7---- 0.0------------
121.0 ms

 

Źródłem pochodzenia danych jest Instytut Meteorologii i Gospodarki Wodnej – Państwowy Instytut Badawczy. Dane Instytutu Meteorologii i Gospodarki Wodnej – Państwowego Instytutu Badawczego zostały przetworzone.

Dane źródłowe można odnaleźć na stronie https://dane.imgw.pl